createdAt,value
2018-11-22T00:02:25.632Z,29.87
2018-11-22T00:05:07.379Z,23.20
2018-11-22T00:07:50.201Z,23.65
2018-11-22T00:14:08.570Z,21.15
2018-11-22T00:16:50.318Z,21.65
2018-11-22T00:19:32.044Z,22.93
2018-11-22T00:22:13.598Z,19.98
2018-11-22T00:24:55.029Z,18.77
2018-11-22T00:27:36.685Z,20.23
2018-11-22T00:30:22.716Z,20.23
2018-11-22T00:32:52.839Z,23.92
2018-11-22T00:35:24.083Z,19.55
2018-11-22T00:37:54.418Z,17.90
2018-11-22T00:40:25.880Z,17.62
2018-11-22T00:42:56.022Z,16.87
2018-11-22T00:45:28.488Z,16.97
2018-11-22T00:47:59.790Z,19.15
2018-11-22T00:50:29.820Z,18.60
2018-11-22T00:53:00.082Z,18.00
2018-11-22T00:55:30.120Z,17.23
2018-11-22T00:58:00.247Z,17.60
2018-11-22T01:00:30.644Z,18.52
2018-11-22T01:03:00.900Z,17.45
2018-11-22T01:05:30.919Z,17.10
2018-11-22T01:08:01.068Z,17.20
2018-11-22T01:10:31.216Z,18.73
2018-11-22T01:13:01.480Z,19.23
2018-11-22T01:15:31.572Z,17.60
2018-11-22T01:18:02.103Z,17.37
2018-11-22T01:20:32.171Z,18.25
2018-11-22T01:23:02.317Z,19.67
2018-11-22T01:25:32.398Z,19.48
2018-11-22T01:28:02.447Z,19.37
2018-11-22T01:30:33.960Z,19.67
2018-11-22T01:33:04.079Z,20.23
2018-11-22T01:35:34.159Z,17.70
2018-11-22T01:38:04.300Z,17.95
2018-11-22T01:40:34.364Z,20.97
2018-11-22T01:43:04.465Z,19.62
2018-11-22T01:45:35.627Z,16.97
2018-11-22T01:48:05.700Z,18.80
2018-11-22T01:50:35.759Z,17.82
2018-11-22T01:53:07.144Z,18.30
2018-11-22T01:55:38.282Z,18.82
2018-11-22T01:58:08.317Z,18.87
2018-11-22T02:00:38.476Z,25.97
2018-11-22T02:03:08.579Z,19.30
2018-11-22T02:05:38.652Z,18.07
2018-11-22T02:08:08.761Z,17.42
2018-11-22T02:10:38.819Z,16.95
2018-11-22T02:13:08.939Z,18.87
2018-11-22T02:15:39.098Z,17.17
2018-11-22T02:18:09.168Z,16.48
2018-11-22T02:20:39.238Z,17.17
2018-11-22T02:23:11.384Z,18.12
2018-11-22T02:25:42.517Z,17.95
2018-11-22T02:28:13.540Z,19.85
2018-11-22T02:30:43.663Z,18.50
2018-11-22T02:33:13.772Z,19.92
2018-11-22T02:35:43.862Z,17.60
2018-11-22T02:38:14.154Z,19.35
2018-11-22T02:40:44.224Z,19.37
2018-11-22T02:43:14.422Z,18.30
2018-11-22T02:45:44.567Z,20.92
2018-11-22T02:48:16.667Z,18.48
2018-11-22T02:50:47.185Z,20.40
2018-11-22T02:53:17.305Z,19.80
2018-11-22T02:55:47.448Z,17.62
2018-11-22T02:58:18.623Z,20.05
2018-11-22T03:00:48.746Z,18.75
2018-11-22T03:03:18.926Z,17.85
2018-11-22T03:05:50.132Z,18.62
2018-11-22T03:08:20.295Z,19.82
2018-11-22T03:10:50.538Z,17.67
2018-11-22T03:13:21.302Z,16.45
2018-11-22T03:15:52.552Z,17.25
2018-11-22T03:18:22.627Z,17.40
2018-11-22T03:20:52.684Z,17.05
2018-11-22T03:23:22.792Z,17.70
2018-11-22T03:25:52.844Z,16.82
2018-11-22T03:28:22.960Z,16.67
2018-11-22T03:30:53.079Z,18.32
2018-11-22T03:33:24.298Z,19.50
2018-11-22T03:35:55.240Z,17.70
2018-11-22T03:38:25.428Z,18.12
2018-11-22T03:40:56.645Z,18.90
2018-11-22T03:43:26.887Z,19.45
2018-11-22T03:45:57.086Z,20.45
2018-11-22T03:48:27.185Z,17.82
2018-11-22T03:50:57.319Z,19.42
2018-11-22T03:53:28.378Z,19.27
2018-11-22T03:55:58.448Z,18.98
2018-11-22T03:58:29.477Z,19.20
2018-11-22T04:01:01.151Z,19.80
2018-11-22T04:03:31.317Z,19.02
2018-11-22T04:06:01.451Z,19.12
2018-11-22T04:08:31.687Z,18.92
2018-11-22T04:11:01.914Z,17.90
2018-11-22T04:13:32.216Z,16.37
2018-11-22T04:16:02.322Z,18.65
2018-11-22T04:18:32.841Z,17.60
2018-11-22T04:21:02.939Z,17.10
2018-11-22T04:23:33.079Z,16.05
2018-11-22T04:26:03.275Z,17.10
2018-11-22T04:28:33.470Z,17.85
2018-11-22T04:31:03.691Z,17.30
2018-11-22T04:33:33.786Z,15.88
2018-11-22T04:36:06.456Z,18.50
2018-11-22T04:38:37.602Z,18.27
2018-11-22T04:41:07.694Z,18.52
2018-11-22T04:43:39.868Z,17.67
2018-11-22T04:46:09.901Z,18.70
2018-11-22T04:48:39.981Z,18.25
2018-11-22T04:51:10.102Z,19.20
2018-11-22T12:16:38.858Z,2.30
2018-11-22T12:19:11.047Z,3.03
2018-11-22T12:21:43.395Z,2.40
2018-11-22T12:24:15.901Z,2.60
2018-11-22T12:26:48.345Z,2.70
2018-11-22T12:29:20.731Z,3.00
2018-11-22T12:31:53.380Z,2.67
2018-11-22T12:34:30.199Z,2.40
2018-11-22T12:38:05.462Z,3.70
2018-11-22T12:40:37.972Z,2.27
2018-11-22T12:43:10.586Z,2.37
2018-11-22T12:45:43.137Z,2.13
2018-11-22T12:48:15.340Z,2.70
2018-11-22T12:50:47.920Z,2.67
2018-11-22T12:53:20.290Z,2.47
2018-11-22T12:55:52.643Z,2.70
2018-11-22T12:58:25.410Z,2.00
2018-11-22T13:00:58.418Z,2.27
2018-11-22T13:03:30.799Z,1.87
2018-11-22T13:06:03.095Z,1.77
2018-11-22T13:08:35.662Z,1.90
2018-11-22T13:11:08.121Z,1.67
2018-11-22T13:13:40.351Z,1.40
2018-11-22T13:16:12.948Z,1.35
2018-11-22T13:18:45.170Z,1.90
2018-11-22T13:21:17.524Z,2.00
2018-11-22T13:23:49.625Z,1.70
2018-11-22T13:26:21.870Z,1.75
2018-11-22T13:28:54.279Z,1.75
2018-11-22T13:31:27.617Z,1.70
2018-11-22T13:33:59.985Z,1.50
2018-11-22T13:36:32.353Z,1.50
2018-11-22T13:39:06.291Z,1.70
2018-11-22T13:41:38.707Z,1.70
2018-11-22T13:44:11.050Z,1.52
2018-11-22T13:46:43.377Z,1.80
2018-11-22T13:49:15.820Z,1.55
2018-11-22T13:51:48.210Z,1.90
2018-11-22T13:54:20.579Z,2.95
2018-11-22T13:56:52.629Z,3.90
2018-11-22T13:59:25.525Z,4.62
2018-11-22T14:01:57.825Z,4.58
2018-11-22T14:04:30.277Z,1.90
2018-11-22T14:07:03.178Z,1.95
2018-11-22T14:09:35.558Z,1.67
2018-11-22T14:12:07.997Z,1.90
2018-11-22T14:14:40.559Z,2.35
2018-11-22T14:17:12.794Z,6.10
2018-11-22T14:19:45.167Z,5.20
2018-11-22T14:22:17.320Z,3.65
2018-11-22T14:24:49.717Z,2.95
2018-11-22T14:27:21.877Z,2.15
2018-11-22T14:29:55.065Z,1.47
2018-11-22T14:32:27.425Z,1.50
2018-11-22T14:35:00.537Z,1.37
2018-11-22T14:37:33.295Z,2.00
2018-11-22T14:40:06.258Z,2.30
2018-11-22T14:42:38.500Z,2.40
2018-11-22T14:45:12.041Z,2.67
2018-11-22T14:47:45.050Z,2.33
2018-11-22T14:50:22.744Z,2.42
2018-11-22T14:52:57.654Z,2.40
2018-11-22T14:55:29.809Z,1.82
2018-11-22T14:58:02.825Z,1.40
2018-11-22T15:00:35.239Z,16.90
2018-11-22T15:03:07.924Z,26.33
2018-11-22T15:05:40.194Z,22.82
2018-11-22T15:08:12.473Z,24.20
2018-11-22T15:10:45.134Z,28.35
2018-11-22T15:13:17.636Z,33.73
2018-11-22T15:15:49.873Z,31.95
2018-11-22T15:18:22.248Z,28.47
2018-11-22T15:21:00.857Z,35.23
2018-11-22T15:23:27.543Z,34.45
2018-11-22T15:26:00.123Z,37.17
2018-11-22T15:28:33.022Z,36.30
2018-11-22T15:31:05.387Z,37.28
2018-11-22T15:33:37.502Z,31.37
2018-11-22T15:36:09.880Z,31.68
2018-11-22T15:38:42.033Z,38.10
2018-11-22T15:41:14.466Z,40.40
2018-11-22T15:43:46.857Z,34.50
2018-11-22T15:46:19.404Z,33.78
2018-11-22T15:48:51.845Z,31.62
2018-11-22T15:51:24.196Z,39.25
2018-11-22T15:53:56.291Z,33.85
2018-11-22T15:56:28.718Z,35.75
2018-11-22T15:59:01.112Z,31.85
2018-11-22T16:01:33.602Z,28.30
2018-11-22T16:04:05.798Z,31.77
2018-11-22T16:06:37.936Z,29.42
2018-11-22T16:09:12.227Z,28.30
2018-11-22T16:11:44.196Z,31.82
2018-11-22T16:14:16.259Z,31.37
2018-11-22T16:16:48.202Z,28.52
2018-11-22T16:19:20.218Z,27.55
2018-11-22T16:21:52.543Z,23.65
2018-11-22T16:24:24.689Z,23.67
2018-11-22T16:26:56.685Z,21.30
2018-11-22T16:29:28.358Z,24.90
2018-11-22T16:32:00.107Z,21.57
2018-11-22T16:34:32.344Z,22.90
2018-11-22T16:37:04.758Z,21.97
2018-11-22T16:39:37.097Z,21.62
2018-11-22T16:42:09.099Z,20.52
2018-11-22T16:44:41.119Z,20.55
2018-11-22T16:47:13.310Z,19.02
2018-11-22T16:49:45.530Z,20.40
2018-11-22T16:52:17.629Z,20.60
2018-11-22T16:54:50.350Z,20.70
2018-11-22T16:57:22.477Z,22.05
2018-11-22T16:59:54.452Z,19.67
2018-11-22T17:02:26.953Z,20.55
2018-11-22T17:04:59.381Z,20.68
2018-11-22T17:07:31.565Z,19.57
2018-11-22T17:10:03.841Z,21.70
2018-11-22T17:12:36.289Z,19.75
2018-11-22T17:15:11.318Z,18.90
2018-11-22T17:17:43.556Z,20.72
2018-11-22T17:20:17.497Z,19.67
2018-11-22T17:22:50.768Z,16.85
2018-11-22T17:25:24.377Z,18.05
2018-11-22T17:27:59.091Z,17.05
2018-11-22T17:30:33.330Z,17.85
2018-11-22T17:33:06.207Z,16.70
2018-11-22T17:35:39.707Z,15.70
2018-11-22T17:38:12.497Z,15.72
2018-11-22T17:40:47.276Z,16.02
2018-11-22T17:43:19.675Z,15.45
2018-11-22T17:45:54.428Z,17.80
2018-11-22T17:48:26.679Z,18.17
2018-11-22T17:50:59.255Z,18.65
2018-11-22T17:53:31.315Z,17.70
2018-11-22T17:56:04.075Z,17.35
2018-11-22T17:58:36.181Z,18.32
2018-11-22T18:01:14.598Z,20.27
2018-11-22T18:03:41.587Z,19.95
2018-11-22T18:06:14.452Z,17.77
2018-11-22T18:08:46.800Z,18.80
2018-11-22T18:11:20.180Z,18.50
2018-11-22T18:13:52.722Z,17.60
2018-11-22T18:16:24.463Z,16.93
2018-11-22T18:18:56.783Z,15.90
2018-11-22T18:21:29.113Z,13.90
2018-11-22T18:24:01.481Z,15.98
2018-11-22T18:26:33.891Z,14.18
2018-11-22T18:29:06.668Z,14.50
2018-11-22T18:31:39.420Z,16.15
2018-11-22T18:34:11.941Z,17.52
2018-11-22T18:36:44.046Z,17.55
2018-11-22T18:39:15.880Z,15.65
2018-11-22T18:41:48.359Z,14.53
2018-11-22T18:44:20.889Z,15.95
2018-11-22T18:46:53.387Z,14.47
2018-11-22T18:49:25.543Z,15.03
2018-11-22T18:51:58.963Z,14.23
2018-11-22T18:54:31.555Z,14.70
2018-11-22T18:57:03.543Z,17.25
2018-11-22T18:59:35.556Z,16.05
2018-11-22T19:02:08.130Z,15.38
2018-11-22T19:04:40.590Z,16.02
2018-11-22T19:07:13.533Z,13.60
2018-11-22T19:09:46.034Z,14.87
2018-11-22T19:12:18.627Z,15.78
2018-11-22T19:14:51.017Z,12.15
2018-11-22T19:17:23.949Z,13.78
2018-11-22T19:19:55.943Z,15.48
2018-11-22T19:22:27.682Z,15.08
2018-11-22T19:25:00.618Z,13.95
2018-11-22T19:27:32.892Z,15.80
2018-11-22T19:30:05.138Z,16.60
2018-11-22T19:32:37.156Z,17.17
2018-11-22T19:35:10.550Z,17.52
2018-11-22T19:37:43.437Z,16.87
2018-11-22T19:40:17.629Z,18.12
2018-11-22T19:42:51.937Z,16.23
2018-11-22T19:45:26.362Z,17.48
2018-11-22T19:47:58.610Z,17.90
2018-11-22T19:50:31.647Z,19.05
2018-11-22T19:53:05.616Z,18.50
2018-11-22T19:55:39.282Z,17.98
2018-11-22T19:58:13.486Z,17.70
2018-11-22T20:00:46.000Z,18.90
2018-11-22T20:03:17.778Z,22.93
2018-11-22T20:05:49.776Z,21.12
2018-11-22T20:08:22.161Z,20.48
2018-11-22T20:10:54.274Z,16.30
2018-11-22T20:13:26.670Z,18.52
2018-11-22T20:15:58.850Z,21.05
2018-11-22T20:18:30.655Z,23.18
2018-11-22T20:21:02.382Z,20.35
2018-11-22T20:23:35.674Z,20.32
2018-11-22T20:26:07.773Z,21.60
2018-11-22T20:28:40.088Z,20.75
2018-11-22T20:31:12.095Z,18.80
2018-11-22T20:33:45.451Z,23.00
2018-11-22T20:36:17.643Z,16.80
2018-11-22T20:38:49.920Z,23.57
2018-11-22T20:41:22.297Z,29.00
2018-11-22T20:43:55.062Z,27.13
2018-11-22T20:46:28.330Z,24.47
2018-11-22T20:49:00.724Z,28.15
2018-11-22T20:51:33.285Z,28.73
2018-11-22T20:54:05.963Z,33.35
2018-11-22T20:56:37.948Z,31.42
2018-11-22T20:59:10.253Z,30.75
2018-11-22T21:01:41.953Z,36.15
2018-11-22T21:04:14.258Z,27.77
2018-11-22T21:06:46.054Z,33.10
2018-11-22T21:09:18.412Z,27.55
2018-11-22T21:11:50.805Z,33.23
2018-11-22T21:14:23.300Z,33.95
2018-11-22T21:16:55.804Z,32.70
2018-11-22T21:19:28.058Z,37.50
2018-11-22T21:22:00.681Z,33.75
2018-11-22T21:24:32.871Z,38.55
2018-11-22T21:27:05.275Z,40.23
2018-11-22T21:29:37.570Z,37.03
2018-11-22T21:32:09.446Z,33.70
2018-11-22T21:34:41.486Z,39.90
2018-11-22T21:37:13.951Z,22.00
2018-11-22T21:39:46.253Z,26.30
2018-11-22T21:42:18.853Z,25.02
2018-11-22T21:44:51.205Z,23.92
2018-11-22T21:47:23.375Z,16.97
2018-11-22T21:49:56.191Z,13.58
2018-11-22T21:52:28.309Z,18.35
2018-11-22T21:55:00.292Z,14.68
2018-11-22T21:57:32.278Z,17.23
2018-11-22T22:00:04.993Z,12.63
2018-11-22T22:02:37.383Z,13.40
2018-11-22T22:05:10.140Z,15.67
2018-11-22T22:07:43.045Z,8.57
2018-11-22T22:10:15.381Z,4.87
2018-11-22T22:12:47.885Z,4.63
2018-11-22T22:15:21.313Z,3.90
2018-11-22T22:17:53.360Z,2.90
2018-11-22T22:20:28.204Z,2.60
2018-11-22T22:23:00.475Z,3.50
2018-11-22T22:25:32.712Z,3.40
2018-11-22T22:28:05.040Z,4.00
2018-11-22T22:30:37.547Z,3.40
2018-11-22T22:33:10.406Z,2.50
2018-11-22T22:35:42.541Z,3.10
2018-11-22T22:38:14.898Z,2.80
2018-11-22T22:40:47.492Z,2.50
2018-11-22T22:43:19.881Z,1.80
2018-11-22T22:45:52.257Z,2.33
2018-11-22T22:48:24.620Z,2.30
2018-11-22T22:50:56.895Z,2.30
2018-11-22T22:53:29.748Z,2.42
2018-11-22T22:56:01.925Z,2.45
2018-11-22T22:58:33.696Z,1.85
2018-11-22T23:01:05.918Z,1.90
2018-11-22T23:03:38.446Z,1.75
2018-11-22T23:06:10.923Z,1.93
2018-11-22T23:08:43.228Z,1.60
2018-11-22T23:11:15.534Z,2.13
2018-11-22T23:13:47.669Z,1.80
2018-11-22T23:16:20.297Z,2.40
2018-11-22T23:18:53.046Z,2.97
2018-11-22T23:21:25.526Z,2.80
2018-11-22T23:23:57.715Z,3.40
2018-11-22T23:26:30.307Z,4.30
2018-11-22T23:29:02.893Z,5.67
2018-11-22T23:31:35.223Z,4.40
2018-11-22T23:34:07.469Z,7.30
2018-11-22T23:36:39.879Z,4.55
2018-11-22T23:39:12.667Z,4.40
2018-11-22T23:41:51.633Z,5.07
2018-11-22T23:44:23.754Z,4.57
2018-11-22T23:46:56.086Z,4.23
2018-11-22T23:49:28.265Z,3.80
2018-11-22T23:52:00.440Z,3.90
2018-11-22T23:54:32.837Z,4.35
2018-11-22T23:57:05.170Z,4.17
2018-11-22T23:59:37.717Z,4.10
